createdAt,value
2023-02-11T00:00:40.589Z,-7.02
2023-02-11T00:03:07.884Z,-6.92
2023-02-11T00:05:35.219Z,-6.81
2023-02-11T00:08:03.866Z,-6.68
2023-02-11T00:10:31.038Z,-6.59
2023-02-11T00:12:57.977Z,-6.51
2023-02-11T00:15:25.029Z,-6.42
2023-02-11T00:17:52.332Z,-6.33
2023-02-11T00:20:19.494Z,-6.24
2023-02-11T00:22:46.400Z,-6.19
2023-02-11T00:25:14.784Z,-6.17
2023-02-11T00:27:41.683Z,-6.14
2023-02-11T00:30:10.463Z,-6.13
2023-02-11T00:32:38.482Z,-6.10
2023-02-11T00:35:06.477Z,-6.13
2023-02-11T00:37:36.578Z,-6.13
2023-02-11T00:40:06.660Z,-6.13
2023-02-11T00:42:37.998Z,-6.10
2023-02-11T00:45:05.482Z,-6.09
2023-02-11T00:47:32.408Z,-6.08
2023-02-11T00:50:00.988Z,-6.11
2023-02-11T00:52:28.194Z,-6.14
2023-02-11T00:54:55.108Z,-6.22
2023-02-11T00:57:22.024Z,-6.27
2023-02-11T00:59:51.708Z,-6.28
2023-02-11T01:02:18.965Z,-6.34
2023-02-11T01:04:45.900Z,-6.37
2023-02-11T01:07:12.859Z,-6.49
2023-02-11T01:09:39.786Z,-6.63
2023-02-11T01:12:07.071Z,-6.63
2023-02-11T01:14:34.030Z,-6.62
2023-02-11T01:17:02.341Z,-6.69
2023-02-11T01:19:29.309Z,-6.90
2023-02-11T01:21:56.258Z,-7.11
2023-02-11T01:24:23.187Z,-7.16
2023-02-11T01:26:52.979Z,-7.11
2023-02-11T01:29:20.277Z,-7.18
2023-02-11T01:31:47.507Z,-7.28
2023-02-11T01:34:16.201Z,-7.36
2023-02-11T01:36:43.277Z,-7.49
2023-02-11T01:39:10.384Z,-7.50
2023-02-11T01:41:37.757Z,-7.45
2023-02-11T01:44:28.455Z,-7.39
2023-02-11T01:46:55.930Z,-7.37
2023-02-11T01:49:27.842Z,-7.31
2023-02-11T01:51:59.401Z,-7.25
2023-02-11T01:54:48.730Z,-7.14
2023-02-11T01:57:22.866Z,-7.10
2023-02-11T01:59:58.206Z,-7.08
2023-02-11T02:02:27.045Z,-7.05
2023-02-11T02:05:05.965Z,-7.12
2023-02-11T02:07:37.352Z,-7.20
2023-02-11T02:10:09.777Z,-7.27
2023-02-11T02:12:37.004Z,-7.22
2023-02-11T02:15:27.274Z,-7.15
2023-02-11T02:18:11.402Z,-7.11
2023-02-11T02:21:17.969Z,-7.09
2023-02-11T02:24:05.172Z,-7.13
2023-02-11T02:27:06.807Z,-7.17
2023-02-11T02:30:01.001Z,-7.17
2023-02-11T02:32:39.493Z,-7.16
2023-02-11T02:35:15.655Z,-7.17
2023-02-11T02:37:51.577Z,-7.14
2023-02-11T02:40:23.564Z,-7.10
2023-02-11T02:42:51.480Z,-7.11
2023-02-11T02:45:19.493Z,-7.17
2023-02-11T02:47:47.902Z,-7.16
2023-02-11T02:50:17.876Z,-7.19
2023-02-11T02:52:57.784Z,-7.23
2023-02-11T02:55:54.634Z,-7.22
2023-02-11T02:58:45.980Z,-7.24
2023-02-11T03:01:25.641Z,-7.32
2023-02-11T03:04:02.825Z,-7.36
2023-02-11T03:06:34.349Z,-7.35
2023-02-11T03:09:08.489Z,-7.40
2023-02-11T03:11:37.847Z,-7.48
2023-02-11T03:14:07.951Z,-7.52
2023-02-11T03:16:39.248Z,-7.48
2023-02-11T03:19:12.753Z,-7.47
2023-02-11T03:21:42.056Z,-7.44
2023-02-11T03:24:13.462Z,-7.44
2023-02-11T03:26:44.403Z,-7.52
2023-02-11T03:29:17.967Z,-7.61
2023-02-11T03:31:52.997Z,-7.65
2023-02-11T03:34:28.081Z,-7.67
2023-02-11T03:36:59.884Z,-7.78
2023-02-11T03:39:32.045Z,-7.84
2023-02-11T03:42:02.014Z,-7.82
2023-02-11T03:44:34.830Z,-7.75
2023-02-11T03:47:05.567Z,-7.69
2023-02-11T03:49:36.530Z,-7.68
2023-02-11T03:52:05.962Z,-7.70
2023-02-11T03:54:33.305Z,-7.65
2023-02-11T03:57:01.845Z,-7.63
2023-02-11T03:59:29.105Z,-7.61
2023-02-11T04:01:56.204Z,-7.66
2023-02-11T04:04:23.312Z,-7.70
2023-02-11T04:06:51.713Z,-7.72
2023-02-11T04:09:18.705Z,-7.75
2023-02-11T04:11:45.626Z,-7.74
2023-02-11T04:14:12.544Z,-7.70
2023-02-11T04:16:39.532Z,-7.68
2023-02-11T04:19:06.550Z,-7.69
2023-02-11T04:21:33.458Z,-7.69
2023-02-11T04:24:01.756Z,-7.66
2023-02-11T04:26:28.663Z,-7.66
2023-02-11T04:28:55.647Z,-7.64
2023-02-11T04:31:22.782Z,-7.65
2023-02-11T04:33:49.742Z,-7.66
2023-02-11T04:36:16.632Z,-7.67
2023-02-11T04:38:43.535Z,-7.67
2023-02-11T04:41:11.822Z,-7.68
2023-02-11T04:43:38.790Z,-7.70
2023-02-11T04:46:05.897Z,-7.72
2023-02-11T04:48:32.864Z,-7.75
2023-02-11T04:50:59.766Z,-7.76
2023-02-11T04:53:26.776Z,-7.75
2023-02-11T04:55:53.768Z,-7.74
2023-02-11T04:58:22.134Z,-7.75
2023-02-11T05:00:51.378Z,-7.76
2023-02-11T05:03:18.591Z,-7.77
2023-02-11T05:05:45.608Z,-7.76
2023-02-11T05:08:13.432Z,-7.76
2023-02-11T05:10:40.332Z,-7.77
2023-02-11T05:13:07.239Z,-7.85
2023-02-11T05:15:35.607Z,-7.87
2023-02-11T05:18:02.594Z,-7.85
2023-02-11T05:20:29.583Z,-7.85
2023-02-11T05:22:56.499Z,-7.86
2023-02-11T05:25:23.395Z,-7.86
2023-02-11T05:27:50.316Z,-7.89
2023-02-11T05:30:17.399Z,-7.92
2023-02-11T05:32:45.653Z,-7.93
2023-02-11T05:35:12.659Z,-7.90
2023-02-11T05:37:39.749Z,-7.84
2023-02-11T05:40:07.682Z,-7.82
2023-02-11T05:42:37.677Z,-7.85
2023-02-11T05:45:05.159Z,-7.83
2023-02-11T05:47:32.313Z,-7.51
2023-02-11T05:50:00.600Z,-6.81
2023-02-11T05:52:27.555Z,-6.10
2023-02-11T05:54:54.445Z,-5.45
2023-02-11T05:57:21.350Z,-4.78
2023-02-11T05:59:48.281Z,-4.24
2023-02-11T06:02:15.740Z,-3.78
2023-02-11T06:04:44.323Z,-3.37
2023-02-11T06:07:12.811Z,-3.03
2023-02-11T06:09:39.963Z,-2.74
2023-02-11T06:12:07.220Z,-2.49
2023-02-11T06:14:34.386Z,-2.26
2023-02-11T06:17:01.748Z,-2.06
2023-02-11T06:19:28.788Z,-1.81
2023-02-11T06:21:56.343Z,-1.59
2023-02-11T06:24:51.087Z,-1.40
2023-02-11T06:27:12.771Z,-1.15
2023-02-11T06:29:39.714Z,-0.95
2023-02-11T06:32:08.664Z,-0.76
2023-02-11T06:34:38.892Z,-0.59
2023-02-11T06:37:06.386Z,-0.43
2023-02-11T06:39:34.759Z,-0.22
2023-02-11T06:42:02.902Z,-0.05
2023-02-11T06:44:29.864Z,0.17
2023-02-11T06:46:56.891Z,0.34
2023-02-11T06:49:23.967Z,0.55
2023-02-11T06:51:50.890Z,0.66
2023-02-11T06:54:17.907Z,0.85
2023-02-11T06:56:46.324Z,0.95
2023-02-11T06:59:16.359Z,1.05
2023-02-11T07:01:43.468Z,1.16
2023-02-11T07:04:10.574Z,1.33
2023-02-11T07:06:37.705Z,1.54
2023-02-11T07:09:05.520Z,1.81
2023-02-11T07:11:33.240Z,1.98
2023-02-11T07:14:04.598Z,2.11
2023-02-11T07:16:32.376Z,2.04
2023-02-11T07:18:59.470Z,2.21
2023-02-11T07:21:26.748Z,2.21
2023-02-11T07:23:53.984Z,2.29
2023-02-11T07:26:23.258Z,2.50
2023-02-11T07:28:51.435Z,2.60
2023-02-11T07:31:22.066Z,2.44
2023-02-11T07:33:49.351Z,2.44
2023-02-11T07:36:16.858Z,2.28
2023-02-11T07:38:44.478Z,2.16
2023-02-11T07:41:15.216Z,2.18
2023-02-11T07:43:43.231Z,2.37
2023-02-11T07:46:12.933Z,2.52
2023-02-11T07:48:41.306Z,2.55
2023-02-11T07:51:10.030Z,2.83
2023-02-11T07:53:37.019Z,2.94
2023-02-11T07:56:05.260Z,3.35
2023-02-11T07:58:32.911Z,3.44
2023-02-11T08:01:02.308Z,3.47
2023-02-11T08:03:29.461Z,3.60
2023-02-11T08:05:58.043Z,3.95
2023-02-11T08:08:26.825Z,4.15
2023-02-11T08:10:53.791Z,4.41
2023-02-11T08:13:20.765Z,4.48
2023-02-11T08:15:50.849Z,4.45
2023-02-11T08:18:19.913Z,4.55
2023-02-11T08:20:46.886Z,4.44
2023-02-11T08:23:18.247Z,4.34
2023-02-11T08:25:45.134Z,4.50
2023-02-11T08:28:12.519Z,4.79
2023-02-11T08:30:39.536Z,4.86
2023-02-11T08:33:06.495Z,4.96
2023-02-11T08:35:35.266Z,5.03
2023-02-11T08:38:02.166Z,5.25
2023-02-11T08:40:30.492Z,5.50
2023-02-11T08:42:57.379Z,5.87
2023-02-11T08:45:24.312Z,6.14
2023-02-11T08:47:51.294Z,6.45
2023-02-11T08:50:18.310Z,6.37
2023-02-11T08:52:47.584Z,6.64
2023-02-11T08:55:14.632Z,7.02
2023-02-11T08:57:43.012Z,7.16
2023-02-11T09:00:11.216Z,7.58
2023-02-11T09:02:38.262Z,7.89
2023-02-11T09:05:05.881Z,8.02
2023-02-11T09:07:32.825Z,8.01
2023-02-11T09:09:59.781Z,7.91
2023-02-11T09:12:26.689Z,8.14
2023-02-11T09:14:55.254Z,8.39
2023-02-11T09:17:22.223Z,8.15
2023-02-11T09:19:49.122Z,7.96
2023-02-11T09:22:18.640Z,7.77
2023-02-11T09:24:45.570Z,8.05
2023-02-11T09:27:12.459Z,8.16
2023-02-11T09:29:39.381Z,8.14
2023-02-11T09:32:10.842Z,7.98
2023-02-11T09:34:38.004Z,8.06
2023-02-11T09:37:04.974Z,8.13
2023-02-11T09:39:31.864Z,8.28
2023-02-11T09:42:30.407Z,8.63
2023-02-11T09:44:58.091Z,8.83
2023-02-11T09:47:33.083Z,8.91
2023-02-11T09:50:04.267Z,9.09
2023-02-11T09:52:37.097Z,9.20
2023-02-11T09:55:06.425Z,9.13
2023-02-11T09:57:35.696Z,9.10
2023-02-11T10:00:17.458Z,9.07
2023-02-11T10:02:58.005Z,9.11
2023-02-11T10:05:40.016Z,9.25
2023-02-11T10:08:15.897Z,9.21
2023-02-11T10:10:50.985Z,9.17
2023-02-11T10:13:35.990Z,9.01
2023-02-11T10:16:14.878Z,8.85
2023-02-11T10:19:00.325Z,8.68
2023-02-11T10:21:35.011Z,8.83
2023-02-11T10:24:05.675Z,9.11
2023-02-11T10:26:34.276Z,9.09
2023-02-11T10:29:10.910Z,9.16
2023-02-11T10:31:42.478Z,9.43
2023-02-11T10:34:13.016Z,9.59
2023-02-11T10:36:42.687Z,9.51
2023-02-11T10:39:14.888Z,9.34
2023-02-11T10:41:44.851Z,9.22
2023-02-11T10:44:23.338Z,9.27
2023-02-11T10:46:51.374Z,9.38
2023-02-11T10:49:40.255Z,9.41
2023-02-11T10:52:15.891Z,9.25
2023-02-11T10:54:55.276Z,9.03
2023-02-11T10:57:23.116Z,8.99
2023-02-11T10:59:55.577Z,9.36
2023-02-11T11:02:31.966Z,9.29
2023-02-11T11:05:03.190Z,9.12
2023-02-11T11:07:31.679Z,9.04
2023-02-11T11:10:02.577Z,9.11
2023-02-11T11:12:33.392Z,9.45
2023-02-11T11:15:02.125Z,9.51
2023-02-11T11:17:29.772Z,9.53
2023-02-11T11:20:18.938Z,9.54
2023-02-11T11:22:47.390Z,9.43
2023-02-11T11:25:26.651Z,9.57
2023-02-11T11:27:56.082Z,9.91
2023-02-11T11:30:27.041Z,9.83
2023-02-11T11:32:54.727Z,9.71
2023-02-11T11:35:26.514Z,9.76
2023-02-11T11:37:55.238Z,9.86
2023-02-11T11:40:25.814Z,10.03
2023-02-11T11:43:16.696Z,9.92
2023-02-11T11:45:54.375Z,9.82
2023-02-11T11:48:24.048Z,9.68
2023-02-11T11:50:54.932Z,9.93
2023-02-11T11:53:28.588Z,10.21
2023-02-11T11:56:00.738Z,10.24
2023-02-11T11:58:29.124Z,10.11
2023-02-11T12:01:06.652Z,9.80
2023-02-11T12:04:02.525Z,9.83
2023-02-11T12:06:39.347Z,10.16
2023-02-11T12:09:15.475Z,10.14
2023-02-11T12:11:58.853Z,10.26
2023-02-11T12:14:38.214Z,10.21
2023-02-11T12:17:13.924Z,10.17
2023-02-11T12:19:56.334Z,9.92
2023-02-11T12:22:38.045Z,9.88
2023-02-11T12:25:25.326Z,9.80
2023-02-11T12:28:03.252Z,9.65
2023-02-11T12:30:44.127Z,9.63
2023-02-11T12:33:24.777Z,9.55
2023-02-11T12:35:58.491Z,9.45
2023-02-11T12:38:52.960Z,9.30
2023-02-11T12:41:59.667Z,8.98
2023-02-11T12:44:31.459Z,8.69
2023-02-11T12:47:10.156Z,8.66
2023-02-11T12:49:53.559Z,8.62
2023-02-11T12:52:40.942Z,8.47
2023-02-11T12:55:20.082Z,8.45
2023-02-11T12:57:48.867Z,8.49
2023-02-11T13:00:19.012Z,8.50
2023-02-11T13:02:56.489Z,8.31
2023-02-11T13:05:28.402Z,8.28
2023-02-11T13:08:02.076Z,8.32
2023-02-11T13:10:34.036Z,8.21
2023-02-11T13:13:18.555Z,8.18
2023-02-11T13:15:50.207Z,8.23
2023-02-11T13:18:30.059Z,8.28
2023-02-11T13:21:05.111Z,8.15
2023-02-11T13:23:46.781Z,8.18
2023-02-11T13:26:23.551Z,8.03
2023-02-11T13:28:55.118Z,7.83
2023-02-11T13:31:26.745Z,7.90
2023-02-11T13:33:54.265Z,7.89
2023-02-11T13:36:26.658Z,7.90
2023-02-11T13:39:02.716Z,7.91
2023-02-11T13:41:34.308Z,8.03
2023-02-11T13:44:22.195Z,7.98
2023-02-11T13:46:54.288Z,7.86
2023-02-11T13:49:24.582Z,7.78
2023-02-11T13:51:53.629Z,7.82
2023-02-11T13:54:28.493Z,7.68
2023-02-11T13:57:41.624Z,7.54
2023-02-11T14:00:47.511Z,7.53
2023-02-11T14:03:48.372Z,7.51
2023-02-11T14:06:40.646Z,7.39
2023-02-11T14:09:30.191Z,7.30
2023-02-11T14:12:30.464Z,7.18
2023-02-11T14:15:21.723Z,7.02
2023-02-11T14:17:50.218Z,6.94
2023-02-11T14:20:39.300Z,6.76
2023-02-11T14:23:07.290Z,6.69
2023-02-11T14:25:34.424Z,6.54
2023-02-11T14:28:11.117Z,6.45
2023-02-11T14:30:57.487Z,6.30
2023-02-11T14:33:43.487Z,6.26
2023-02-11T14:36:23.055Z,6.21
2023-02-11T14:39:01.790Z,6.19
2023-02-11T14:41:32.069Z,6.10
2023-02-11T14:44:03.697Z,6.02
2023-02-11T14:46:32.977Z,5.92
2023-02-11T14:49:03.746Z,5.89
2023-02-11T14:51:34.969Z,5.81
2023-02-11T14:54:13.358Z,5.62
2023-02-11T14:56:40.300Z,5.60
2023-02-11T14:59:16.998Z,5.52
2023-02-11T15:01:48.585Z,5.45
2023-02-11T15:04:25.519Z,5.38
2023-02-11T15:06:53.146Z,5.33
2023-02-11T15:09:26.851Z,5.21
2023-02-11T15:11:55.499Z,5.12
2023-02-11T15:14:25.824Z,5.08
2023-02-11T15:16:54.586Z,5.04
2023-02-11T15:19:26.779Z,4.97
2023-02-11T15:21:54.168Z,4.92
2023-02-11T15:24:26.206Z,4.84
2023-02-11T15:26:57.550Z,4.79
2023-02-11T15:29:26.431Z,4.69
2023-02-11T15:32:15.729Z,4.61
2023-02-11T15:34:45.740Z,4.52
2023-02-11T15:37:14.858Z,4.43
2023-02-11T15:39:42.813Z,4.39
2023-02-11T15:42:24.340Z,4.39
2023-02-11T15:45:09.924Z,4.32
2023-02-11T15:47:36.992Z,4.27
2023-02-11T15:50:07.393Z,4.19
2023-02-11T15:52:34.600Z,4.13
2023-02-11T15:55:02.858Z,4.11
2023-02-11T15:57:29.988Z,4.09
2023-02-11T16:00:04.381Z,4.06
2023-02-11T16:02:45.188Z,4.02
2023-02-11T16:05:31.024Z,3.94
2023-02-11T16:07:58.447Z,3.86
2023-02-11T16:10:28.196Z,3.75
2023-02-11T16:13:15.770Z,3.65
2023-02-11T16:15:49.755Z,3.57
2023-02-11T16:18:39.389Z,3.47
2023-02-11T16:21:16.801Z,3.33
2023-02-11T16:23:50.868Z,3.23
2023-02-11T16:26:25.154Z,3.09
2023-02-11T16:28:52.587Z,3.03
2023-02-11T16:31:20.041Z,2.94
2023-02-11T16:33:47.056Z,2.85
2023-02-11T16:36:19.331Z,2.83
2023-02-11T16:38:46.511Z,2.84
2023-02-11T16:41:13.619Z,2.87
2023-02-11T16:43:40.604Z,2.85
2023-02-11T16:46:08.817Z,2.83
2023-02-11T16:48:35.745Z,2.81
2023-02-11T16:51:03.515Z,2.78
2023-02-11T16:53:32.331Z,2.75
2023-02-11T16:55:59.290Z,2.72
2023-02-11T16:58:27.357Z,2.67
2023-02-11T17:00:57.085Z,2.62
2023-02-11T17:03:29.592Z,2.57
2023-02-11T17:05:57.132Z,2.55
2023-02-11T17:08:24.194Z,2.52
2023-02-11T17:10:52.896Z,2.48
2023-02-11T17:13:20.291Z,2.46
2023-02-11T17:15:47.359Z,2.43
2023-02-11T17:18:14.536Z,2.39
2023-02-11T17:20:41.817Z,2.34
2023-02-11T17:23:09.397Z,2.33
2023-02-11T17:25:39.378Z,2.29
2023-02-11T17:28:12.180Z,2.27
2023-02-11T17:30:41.762Z,2.24
2023-02-11T17:33:09.793Z,2.23
2023-02-11T17:35:41.959Z,2.21
2023-02-11T17:38:11.074Z,2.20
2023-02-11T17:40:38.032Z,2.15
2023-02-11T17:43:05.285Z,2.07
2023-02-11T17:45:33.818Z,2.00
2023-02-11T17:48:00.784Z,1.94
2023-02-11T17:50:29.300Z,1.95
2023-02-11T17:52:56.908Z,1.94
2023-02-11T17:55:23.868Z,1.89
2023-02-11T17:57:50.778Z,1.89
2023-02-11T18:00:18.734Z,1.85
2023-02-11T18:02:47.054Z,1.82
2023-02-11T18:05:14.739Z,1.80
2023-02-11T18:07:42.050Z,1.77
2023-02-11T18:10:09.882Z,1.65
2023-02-11T18:12:37.243Z,1.54
2023-02-11T18:15:04.678Z,1.43
2023-02-11T18:17:31.617Z,1.30
2023-02-11T18:19:59.980Z,1.24
2023-02-11T18:22:27.268Z,1.20
2023-02-11T18:24:54.719Z,1.23
2023-02-11T18:27:22.408Z,1.19
2023-02-11T18:29:49.458Z,1.14
2023-02-11T18:32:16.622Z,1.07
2023-02-11T18:34:43.781Z,1.03
2023-02-11T18:37:13.398Z,1.06
2023-02-11T18:39:40.490Z,1.10
2023-02-11T18:42:07.499Z,1.12
2023-02-11T18:44:34.474Z,1.12
2023-02-11T18:47:01.457Z,1.16
2023-02-11T18:49:28.491Z,1.15
2023-02-11T18:51:55.636Z,1.14
2023-02-11T18:54:24.280Z,1.16
2023-02-11T18:56:51.264Z,1.16
2023-02-11T18:59:18.199Z,1.14
2023-02-11T19:01:46.920Z,1.15
2023-02-11T19:04:18.979Z,1.20
2023-02-11T19:06:48.387Z,1.19
2023-02-11T19:09:17.351Z,1.12
2023-02-11T19:11:54.164Z,1.09
2023-02-11T19:14:23.284Z,1.04
2023-02-11T19:16:52.820Z,0.99
2023-02-11T19:19:22.296Z,0.93
2023-02-11T19:21:49.449Z,0.87
2023-02-11T19:24:19.811Z,0.85
2023-02-11T19:26:49.411Z,0.84
2023-02-11T19:29:16.945Z,0.83
2023-02-11T19:31:44.321Z,0.77
2023-02-11T19:34:13.465Z,0.75
2023-02-11T19:36:40.684Z,0.71
2023-02-11T19:39:08.360Z,0.68
2023-02-11T19:41:35.419Z,0.61
2023-02-11T19:44:05.069Z,0.60
2023-02-11T19:46:33.651Z,0.56
2023-02-11T19:49:01.121Z,0.46
2023-02-11T19:51:28.605Z,0.33
2023-02-11T19:53:55.643Z,0.24
2023-02-11T19:56:23.170Z,0.22
2023-02-11T19:58:50.179Z,0.21
2023-02-11T20:01:20.509Z,0.19
2023-02-11T20:03:50.138Z,0.22
2023-02-11T20:06:19.712Z,0.24
2023-02-11T20:08:46.805Z,0.27
2023-02-11T20:11:15.940Z,0.30
2023-02-11T20:13:43.518Z,0.31
2023-02-11T20:16:12.508Z,0.29
2023-02-11T20:18:41.120Z,0.30
2023-02-11T20:21:09.000Z,0.30
2023-02-11T20:23:36.563Z,0.26
2023-02-11T20:26:07.748Z,0.23
2023-02-11T20:28:34.841Z,0.23
2023-02-11T20:31:02.422Z,0.24
2023-02-11T20:33:31.122Z,0.25
2023-02-11T20:36:01.198Z,0.25
2023-02-11T20:38:28.452Z,0.20
2023-02-11T20:40:55.858Z,0.10
2023-02-11T20:43:22.982Z,0.07
2023-02-11T20:45:50.239Z,0.00
2023-02-11T20:48:17.437Z,-0.02
2023-02-11T20:50:46.638Z,-0.17
2023-02-11T20:53:16.771Z,-0.29
2023-02-11T20:55:43.763Z,-0.31
2023-02-11T20:58:10.715Z,-0.30
2023-02-11T21:00:38.065Z,-0.28
2023-02-11T21:03:05.156Z,-0.20
2023-02-11T21:05:32.200Z,-0.17
2023-02-11T21:07:59.114Z,-0.16
2023-02-11T21:10:27.526Z,-0.12
2023-02-11T21:12:54.510Z,-0.11
2023-02-11T21:15:24.221Z,-0.06
2023-02-11T21:17:51.431Z,-0.02
2023-02-11T21:20:19.027Z,0.00
2023-02-11T21:22:45.988Z,-0.05
2023-02-11T21:25:13.043Z,-0.04
2023-02-11T21:27:41.355Z,-0.07
2023-02-11T21:30:09.463Z,-0.08
2023-02-11T21:32:36.410Z,-0.09
2023-02-11T21:35:03.351Z,-0.05
2023-02-11T21:37:30.278Z,-0.05
2023-02-11T21:39:57.244Z,-0.04
2023-02-11T21:42:24.250Z,-0.03
2023-02-11T21:44:52.543Z,-0.01
2023-02-11T21:47:19.443Z,0.00
2023-02-11T21:49:46.341Z,-0.04
2023-02-11T21:52:13.348Z,-0.02
2023-02-11T21:54:40.276Z,-0.05
2023-02-11T21:57:07.188Z,0.01
2023-02-11T21:59:34.165Z,0.00
2023-02-11T22:02:02.551Z,0.04
2023-02-11T22:04:29.489Z,0.10
2023-02-11T22:06:56.426Z,0.06
2023-02-11T22:09:23.390Z,0.09
2023-02-11T22:11:50.421Z,0.04
2023-02-11T22:14:17.391Z,0.09
2023-02-11T22:16:45.317Z,0.13
2023-02-11T22:19:14.692Z,0.13
2023-02-11T22:21:43.245Z,0.09
2023-02-11T22:24:10.282Z,0.12
2023-02-11T22:26:38.066Z,0.16
2023-02-11T22:29:05.006Z,0.16
2023-02-11T22:31:33.840Z,0.18
2023-02-11T22:34:02.238Z,0.21
2023-02-11T22:36:32.531Z,0.30
2023-02-11T22:39:01.813Z,0.37
2023-02-11T22:41:29.144Z,0.45
2023-02-11T22:43:56.522Z,0.53
2023-02-11T22:46:23.514Z,0.60
2023-02-11T22:48:51.213Z,0.66
2023-02-11T22:51:20.385Z,0.68
2023-02-11T22:53:53.332Z,0.72
2023-02-11T22:56:20.960Z,0.76
2023-02-11T22:58:48.158Z,0.77
2023-02-11T23:01:15.567Z,0.79
2023-02-11T23:03:42.828Z,0.81
2023-02-11T23:06:10.801Z,0.82
2023-02-11T23:08:38.781Z,0.83
2023-02-11T23:11:09.850Z,0.83
2023-02-11T23:13:39.034Z,0.83
2023-02-11T23:16:08.078Z,0.81
2023-02-11T23:18:36.174Z,0.80
2023-02-11T23:21:05.117Z,0.79
2023-02-11T23:23:32.139Z,0.76
2023-02-11T23:25:59.064Z,0.70
2023-02-11T23:28:27.787Z,0.65
2023-02-11T23:30:55.084Z,0.55
2023-02-11T23:33:23.044Z,0.49
2023-02-11T23:35:49.964Z,0.46
2023-02-11T23:38:16.917Z,0.43
2023-02-11T23:40:43.884Z,0.40
2023-02-11T23:43:10.780Z,0.36
2023-02-11T23:45:39.063Z,0.32
2023-02-11T23:48:05.958Z,0.30
2023-02-11T23:50:33.880Z,0.31
2023-02-11T23:53:00.794Z,0.32
2023-02-11T23:55:27.709Z,0.29
2023-02-11T23:57:54.608Z,0.27
